Time,TemperatureF,DewpointF,PressureIn,WindDirection,WindDirectionDegrees,WindSpeedMPH,WindSpeedGustMPH,Humidity,HourlyPrecipIn,Conditions,Clouds,dailyrainin,SoftwareType,DateUTC
2013-03-24 00:02:00,51.4,44.8,30.12,West,280,0.0,2.0,78,0.00,,,0.00,meteohub,2013-03-24 07:02:00,
2013-03-24 00:07:00,51.4,45.1,30.12,West,280,1.0,2.0,79,0.00,,,0.00,meteohub,2013-03-24 07:07:00,
2013-03-24 00:12:00,51.3,45.0,30.12,West,280,0.0,2.0,79,0.00,,,0.00,meteohub,2013-03-24 07:12:00,
2013-03-24 00:17:00,51.1,45.1,30.12,West,280,0.0,2.0,80,0.00,,,0.00,meteohub,2013-03-24 07:17:00,
2013-03-24 00:22:00,51.1,45.1,30.12,West,280,2.0,2.0,80,0.00,,,0.00,meteohub,2013-03-24 07:22:00,
2013-03-24 00:32:00,50.9,45.0,30.12,West,280,1.0,4.0,80,0.00,,,0.00,meteohub,2013-03-24 07:32:00,
2013-03-24 00:42:00,50.7,44.8,30.12,West,280,2.0,4.0,80,0.00,,,0.00,meteohub,2013-03-24 07:42:00,
2013-03-24 00:47:00,50.5,44.6,30.12,WNW,282,1.0,5.0,80,0.00,,,0.00,meteohub,2013-03-24 07:47:00,
2013-03-24 00:52:00,50.5,45.0,30.12,West,280,0.0,7.0,81,0.00,,,0.00,meteohub,2013-03-24 07:52:00,
2013-03-24 00:57:00,50.4,44.8,30.12,ENE,63,1.0,7.0,81,0.00,,,0.00,meteohub,2013-03-24 07:57:00,
2013-03-24 01:02:00,50.5,45.0,30.12,NNW,328,0.0,5.0,81,0.00,,,0.00,meteohub,2013-03-24 08:02:00,
2013-03-24 01:07:00,50.5,45.0,30.12,West,281,0.0,5.0,81,0.00,,,0.00,meteohub,2013-03-24 08:07:00,
2013-03-24 01:12:00,50.5,45.0,30.12,West,280,1.0,5.0,81,0.00,,,0.00,meteohub,2013-03-24 08:12:00,
2013-03-24 01:22:00,50.5,45.0,30.12,West,280,0.0,2.0,81,0.00,,,0.00,meteohub,2013-03-24 08:22:00,
2013-03-24 01:27:00,50.5,44.6,30.12,West,280,0.0,2.0,80,0.00,,,0.00,meteohub,2013-03-24 08:27:00,
2013-03-24 01:32:00,50.7,45.1,30.12,West,280,0.0,1.0,81,0.00,,,0.00,meteohub,2013-03-24 08:32:00,
2013-03-24 01:37:00,50.7,44.8,30.12,West,280,0.0,1.0,80,0.00,,,0.00,meteohub,2013-03-24 08:37:00,
2013-03-24 01:47:00,50.7,44.8,30.12,WNW,285,0.0,1.0,80,0.00,,,0.00,meteohub,2013-03-24 08:47:00,
2013-03-24 01:52:00,50.7,44.8,30.12,WNW,285,0.0,1.0,80,0.00,,,0.00,meteohub,2013-03-24 08:52:00,
2013-03-24 01:57:00,50.9,45.0,30.12,WNW,282,0.0,1.0,80,0.00,,,0.00,meteohub,2013-03-24 08:57:00,
2013-03-24 02:02:00,51.3,45.3,30.12,WNW,282,0.0,1.0,80,0.00,,,0.00,meteohub,2013-03-24 09:02:00,
2013-03-24 02:07:00,51.3,45.3,30.12,West,281,0.0,1.0,80,0.00,,,0.00,meteohub,2013-03-24 09:07:00,
2013-03-24 02:12:00,51.6,45.3,30.12,West,281,0.0,1.0,79,0.00,,,0.00,meteohub,2013-03-24 09:12:00,
2013-03-24 02:17:00,51.4,44.8,30.12,West,280,0.0,1.0,78,0.00,,,0.00,meteohub,2013-03-24 09:17:00,
2013-03-24 02:22:00,51.4,45.1,30.12,West,280,0.0,2.0,79,0.00,,,0.00,meteohub,2013-03-24 09:22:00,
2013-03-24 02:27:00,51.3,45.0,30.12,West,281,0.0,2.0,79,0.00,,,0.00,meteohub,2013-03-24 09:27:00,
2013-03-24 02:32:00,51.1,45.1,30.12,West,280,0.0,2.0,80,0.00,,,0.00,meteohub,2013-03-24 09:32:00,
2013-03-24 02:37:00,50.9,45.0,30.12,West,280,1.0,3.0,80,0.00,,,0.00,meteohub,2013-03-24 09:37:00,
2013-03-24 02:42:00,50.7,45.1,30.12,West,280,1.0,3.0,81,0.00,,,0.00,meteohub,2013-03-24 09:42:00,
2013-03-24 02:47:00,50.5,45.0,30.12,West,280,0.0,4.0,81,0.00,,,0.00,meteohub,2013-03-24 09:47:00,
2013-03-24 02:52:00,50.4,45.1,30.12,West,280,0.0,4.0,82,0.00,,,0.00,meteohub,2013-03-24 09:52:00,
2013-03-24 02:57:00,50.5,45.3,30.12,West,280,0.0,4.0,82,0.00,,,0.00,meteohub,2013-03-24 09:57:00,
2013-03-24 03:02:00,50.7,45.5,30.12,West,281,0.0,1.0,82,0.00,,,0.00,meteohub,2013-03-24 10:02:00,
2013-03-24 03:07:00,50.5,45.0,30.12,West,280,0.0,2.0,81,0.00,,,0.00,meteohub,2013-03-24 10:07:00,
2013-03-24 03:12:00,50.5,45.3,30.12,West,280,0.0,2.0,82,0.00,,,0.00,meteohub,2013-03-24 10:12:00,
2013-03-24 03:17:00,48.7,44.1,30.11,SSW,213,1.0,2.0,84,0.00,,,0.00,meteohub,2013-03-24 10:17:00,
2013-03-24 03:22:00,48.6,43.9,30.12,WSW,242,1.0,2.0,84,0.00,,,0.00,meteohub,2013-03-24 10:22:00,
2013-03-24 03:27:00,48.7,44.1,30.11,WSW,245,0.0,2.0,84,0.00,,,0.00,meteohub,2013-03-24 10:27:00,
2013-03-24 03:32:00,48.6,44.2,30.11,WSW,245,0.0,2.0,85,0.00,,,0.00,meteohub,2013-03-24 10:32:00,
2013-03-24 03:37:00,48.7,44.4,30.11,WSW,244,0.0,2.0,85,0.00,,,0.00,meteohub,2013-03-24 10:37:00,
2013-03-24 03:42:00,48.6,44.2,30.11,WSW,238,0.0,1.0,85,0.00,,,0.00,meteohub,2013-03-24 10:42:00,
2013-03-24 03:47:00,48.6,44.2,30.11,SSW,209,0.0,2.0,85,0.00,,,0.00,meteohub,2013-03-24 10:47:00,
2013-03-24 03:52:00,48.6,44.2,30.11,West,264,1.0,2.0,85,0.00,,,0.00,meteohub,2013-03-24 10:52:00,
2013-03-24 03:57:00,48.6,44.2,30.11,SW,222,1.0,3.0,85,0.00,,,0.00,meteohub,2013-03-24 10:57:00,
2013-03-24 04:07:00,48.7,44.4,30.11,WSW,250,1.0,3.0,85,0.00,,,0.00,meteohub,2013-03-24 11:07:00,
2013-03-24 04:12:00,48.7,44.4,30.11,WNW,283,1.0,2.0,85,0.00,,,0.00,meteohub,2013-03-24 11:12:00,
2013-03-24 04:22:00,48.7,44.4,30.11,WNW,284,0.0,3.0,85,0.00,,,0.00,meteohub,2013-03-24 11:22:00,
2013-03-24 04:27:00,48.7,44.4,30.11,West,265,1.0,3.0,85,0.00,,,0.00,meteohub,2013-03-24 11:27:00,
2013-03-24 04:32:00,48.7,44.4,30.11,SW,223,0.0,2.0,85,0.00,,,0.00,meteohub,2013-03-24 11:32:00,
2013-03-24 04:37:00,48.7,44.4,30.11,West,275,1.0,2.0,85,0.00,,,0.00,meteohub,2013-03-24 11:37:00,
2013-03-24 04:42:00,48.7,44.4,30.11,West,271,1.0,2.0,85,0.00,,,0.00,meteohub,2013-03-24 11:42:00,
2013-03-24 04:47:00,48.7,44.4,30.11,SSW,195,0.0,2.0,85,0.00,,,0.00,meteohub,2013-03-24 11:47:00,
2013-03-24 04:57:00,48.6,44.2,30.11,SW,236,0.0,2.0,85,0.00,,,0.00,meteohub,2013-03-24 11:57:00,
2013-03-24 05:02:00,48.6,44.2,30.11,SW,225,0.0,2.0,85,0.00,,,0.00,meteohub,2013-03-24 12:02:00,
2013-03-24 05:07:00,48.4,44.1,30.11,SW,225,0.0,2.0,85,0.00,,,0.00,meteohub,2013-03-24 12:07:00,
2013-03-24 05:12:00,48.4,44.1,30.11,SSW,207,1.0,1.0,85,0.00,,,0.00,meteohub,2013-03-24 12:12:00,
2013-03-24 05:22:00,48.0,43.7,30.11,SSW,195,0.0,2.0,85,0.00,,,0.00,meteohub,2013-03-24 12:22:00,
2013-03-24 05:27:00,47.8,43.9,30.11,SSW,211,1.0,2.0,86,0.00,,,0.00,meteohub,2013-03-24 12:27:00,
2013-03-24 05:32:00,47.8,43.9,30.11,SW,232,1.0,2.0,86,0.00,,,0.00,meteohub,2013-03-24 12:32:00,
2013-03-24 05:37:00,48.2,44.6,30.11,WSW,254,1.0,2.0,87,0.00,,,0.00,meteohub,2013-03-24 12:37:00,
2013-03-24 05:47:00,48.4,44.4,30.11,WNW,299,1.0,2.0,86,0.00,,,0.00,meteohub,2013-03-24 12:47:00,
2013-03-24 05:52:00,48.4,44.4,30.11,WNW,290,2.0,2.0,86,0.00,,,0.00,meteohub,2013-03-24 12:52:00,
2013-03-24 05:57:00,48.6,44.6,30.11,WSW,254,0.0,2.0,86,0.00,,,0.00,meteohub,2013-03-24 12:57:00,
2013-03-24 06:02:00,48.4,44.4,30.12,West,275,2.0,2.0,86,0.00,,,0.00,meteohub,2013-03-24 13:02:00,
2013-03-24 06:07:00,48.6,44.8,30.12,West,277,0.0,2.0,87,0.00,,,0.00,meteohub,2013-03-24 13:07:00,
2013-03-24 06:12:00,48.4,44.4,30.12,SSW,195,0.0,2.0,86,0.00,,,0.00,meteohub,2013-03-24 13:12:00,
2013-03-24 06:17:00,48.2,44.2,30.12,SSW,195,0.0,2.0,86,0.00,,,0.00,meteohub,2013-03-24 13:17:00,
2013-03-24 06:22:00,48.2,44.6,30.12,WSW,246,1.0,1.0,87,0.00,,,0.00,meteohub,2013-03-24 13:22:00,
2013-03-24 06:32:00,48.2,44.2,30.12,SW,236,0.0,2.0,86,0.00,,,0.00,meteohub,2013-03-24 13:32:00,
2013-03-24 06:37:00,48.0,44.1,30.12,SW,236,0.0,2.0,86,0.00,,,0.00,meteohub,2013-03-24 13:37:00,
2013-03-24 06:42:00,48.0,44.1,30.12,SSW,211,0.0,1.0,86,0.00,,,0.00,meteohub,2013-03-24 13:42:00,
2013-03-24 06:52:00,48.0,44.1,30.12,WSW,252,0.0,3.0,86,0.00,,,0.00,meteohub,2013-03-24 13:52:00,
2013-03-24 06:57:00,48.0,44.1,30.12,South,183,1.0,3.0,86,0.00,,,0.00,meteohub,2013-03-24 13:57:00,
2013-03-24 07:02:00,48.0,44.1,30.12,WSW,241,0.0,3.0,86,0.00,,,0.00,meteohub,2013-03-24 14:02:00,
2013-03-24 07:07:00,47.8,43.9,30.12,WSW,241,0.0,2.0,86,0.00,,,0.00,meteohub,2013-03-24 14:07:00,
2013-03-24 07:17:00,47.8,44.2,30.12,SW,227,0.0,2.0,87,0.00,,,0.00,meteohub,2013-03-24 14:17:00,
2013-03-24 07:22:00,47.8,44.2,30.12,SW,227,1.0,1.0,87,0.00,,,0.00,meteohub,2013-03-24 14:22:00,
2013-03-24 07:27:00,47.8,44.2,30.12,SW,226,0.0,1.0,87,0.00,,,0.00,meteohub,2013-03-24 14:27:00,
2013-03-24 07:32:00,48.0,44.4,30.12,SW,227,0.0,1.0,87,0.00,,,0.00,meteohub,2013-03-24 14:32:00,
2013-03-24 07:37:00,48.0,44.4,30.12,SW,230,1.0,1.0,87,0.00,,,0.00,meteohub,2013-03-24 14:37:00,
2013-03-24 07:47:00,48.4,44.4,30.12,West,261,2.0,2.0,86,0.00,,,0.00,meteohub,2013-03-24 14:47:00,
2013-03-24 07:57:00,48.7,44.8,30.12,SW,217,1.0,2.0,86,0.00,,,0.00,meteohub,2013-03-24 14:57:00,
2013-03-24 08:07:00,48.9,45.0,30.12,SSW,209,0.0,2.0,86,0.00,,,0.00,meteohub,2013-03-24 15:07:00,
2013-03-24 08:17:00,52.0,46.4,30.12,West,280,1.0,4.0,81,0.00,,,0.00,meteohub,2013-03-24 15:17:00,
2013-03-24 08:22:00,52.2,46.2,30.12,West,280,2.0,4.0,80,0.00,,,0.00,meteohub,2013-03-24 15:22:00,
2013-03-24 08:27:00,52.5,46.6,30.12,West,280,0.0,4.0,80,0.00,,,0.00,meteohub,2013-03-24 15:27:00,
2013-03-24 08:32:00,53.1,46.8,30.12,West,280,0.0,4.0,79,0.00,,,0.00,meteohub,2013-03-24 15:32:00,
2013-03-24 08:42:00,54.1,47.1,30.13,West,280,0.0,1.0,77,0.00,,,0.00,meteohub,2013-03-24 15:42:00,
2013-03-24 08:47:00,54.9,47.1,30.13,West,280,0.0,0.0,75,0.00,,,0.00,meteohub,2013-03-24 15:47:00,
2013-03-24 08:57:00,54.7,46.2,30.13,West,280,2.0,4.0,73,0.00,,,0.00,meteohub,2013-03-24 15:57:00,
2013-03-24 09:02:00,55.2,46.8,30.13,West,280,0.0,4.0,73,0.00,,,0.00,meteohub,2013-03-24 16:02:00,
2013-03-24 09:12:00,54.9,46.8,30.13,ENE,64,2.0,3.0,74,0.00,,,0.00,meteohub,2013-03-24 16:12:00,
2013-03-24 09:17:00,55.2,46.8,30.13,ENE,67,4.0,4.0,73,0.00,,,0.00,meteohub,2013-03-24 16:17:00,
2013-03-24 09:22:00,54.9,46.4,30.13,ENE,64,0.0,5.0,73,0.00,,,0.00,meteohub,2013-03-24 16:22:00,
2013-03-24 09:27:00,54.9,46.4,30.13,ENE,64,1.0,5.0,73,0.00,,,0.00,meteohub,2013-03-24 16:27:00,
2013-03-24 09:32:00,54.9,46.4,30.13,ENE,64,0.0,5.0,73,0.00,,,0.00,meteohub,2013-03-24 16:32:00,
2013-03-24 09:37:00,55.6,47.1,30.13,ENE,64,2.0,5.0,73,0.00,,,0.00,meteohub,2013-03-24 16:37:00,
2013-03-24 09:42:00,55.6,46.8,30.13,ENE,65,0.0,5.0,72,0.00,,,0.00,meteohub,2013-03-24 16:42:00,
2013-03-24 09:47:00,55.9,46.8,30.13,ENE,64,0.0,3.0,71,0.00,,,0.00,meteohub,2013-03-24 16:47:00,
2013-03-24 09:52:00,56.5,46.8,30.13,ENE,64,1.0,3.0,70,0.00,,,0.00,meteohub,2013-03-24 16:52:00,
2013-03-24 09:57:00,57.0,45.9,30.13,ENE,64,0.0,4.0,66,0.00,,,0.00,meteohub,2013-03-24 16:57:00,
2013-03-24 10:02:00,57.6,46.8,30.13,ENE,64,0.0,4.0,67,0.00,,,0.00,meteohub,2013-03-24 17:02:00,
2013-03-24 10:07:00,57.9,46.6,30.13,ENE,61,0.0,4.0,66,0.00,,,0.00,meteohub,2013-03-24 17:07:00,
2013-03-24 10:12:00,59.0,48.0,30.13,ENE,63,0.0,2.0,67,0.00,,,0.00,meteohub,2013-03-24 17:12:00,
2013-03-24 10:17:00,59.7,48.0,30.13,ENE,63,0.0,2.0,65,0.00,,,0.00,meteohub,2013-03-24 17:17:00,
2013-03-24 10:22:00,60.4,48.2,30.13,ENE,57,0.0,3.0,64,0.00,,,0.00,meteohub,2013-03-24 17:22:00,
2013-03-24 10:27:00,60.4,48.2,30.13,NE,55,0.0,3.0,64,0.00,,,0.00,meteohub,2013-03-24 17:27:00,
2013-03-24 10:32:00,60.4,49.1,30.13,NNE,15,0.0,3.0,66,0.00,,,0.00,meteohub,2013-03-24 17:32:00,
2013-03-24 10:37:00,59.9,48.9,30.13,NNE,13,3.0,6.0,67,0.00,,,0.00,meteohub,2013-03-24 17:37:00,
2013-03-24 10:42:00,59.2,48.6,30.12,North,5,0.0,9.0,68,0.00,,,0.00,meteohub,2013-03-24 17:42:00,
2013-03-24 10:47:00,59.4,49.1,30.12,North,5,2.0,9.0,69,0.00,,,0.00,meteohub,2013-03-24 17:47:00,
2013-03-24 10:52:00,60.1,49.1,30.12,North,0,2.0,9.0,67,0.00,,,0.00,meteohub,2013-03-24 17:52:00,
2013-03-24 11:02:00,60.3,49.3,30.12,NE,45,1.0,7.0,67,0.00,,,0.00,meteohub,2013-03-24 18:02:00,
2013-03-24 11:12:00,60.8,49.8,30.12,North,0,0.0,7.0,67,0.00,,,0.00,meteohub,2013-03-24 18:12:00,
2013-03-24 11:17:00,61.7,49.8,30.12,NE,36,1.0,7.0,65,0.00,,,0.00,meteohub,2013-03-24 18:17:00,
2013-03-24 11:22:00,62.1,49.8,30.12,NNE,16,6.0,7.0,64,0.00,,,0.00,meteohub,2013-03-24 18:22:00,
2013-03-24 11:32:00,60.3,49.6,30.12,NE,40,2.0,9.0,68,0.00,,,0.00,meteohub,2013-03-24 18:32:00,
2013-03-24 11:37:00,59.7,48.7,30.12,NE,53,0.0,9.0,67,0.00,,,0.00,meteohub,2013-03-24 18:37:00,
2013-03-24 11:47:00,59.7,48.7,30.12,NNE,30,4.0,6.0,67,0.00,,,0.00,meteohub,2013-03-24 18:47:00,
2013-03-24 11:57:00,59.7,49.1,30.12,ENE,63,0.0,6.0,68,0.00,,,0.00,meteohub,2013-03-24 18:57:00,
2013-03-24 12:02:00,60.1,49.5,30.12,NNE,19,1.0,5.0,68,0.00,,,0.00,meteohub,2013-03-24 19:02:00,
2013-03-24 12:07:00,60.1,49.1,30.12,NNE,28,2.0,6.0,67,0.00,,,0.00,meteohub,2013-03-24 19:07:00,
2013-03-24 12:17:00,61.0,50.0,30.12,NE,36,2.0,6.0,67,0.00,,,0.00,meteohub,2013-03-24 19:17:00,
2013-03-24 12:27:00,61.5,49.6,30.12,NE,54,2.0,5.0,65,0.00,,,0.00,meteohub,2013-03-24 19:27:00,
2013-03-24 12:32:00,62.2,50.4,30.11,ENE,63,0.0,5.0,65,0.00,,,0.00,meteohub,2013-03-24 19:32:00,
2013-03-24 12:42:00,64.8,48.2,30.12,West,281,2.0,5.0,55,0.00,,,0.00,meteohub,2013-03-24 19:42:00,
2013-03-24 12:47:00,64.6,48.0,30.12,West,281,2.0,6.0,55,0.00,,,0.00,meteohub,2013-03-24 19:47:00,
2013-03-24 12:52:00,64.0,48.0,30.12,ENE,67,1.0,6.0,56,0.00,,,0.00,meteohub,2013-03-24 19:52:00,
2013-03-24 12:57:00,64.0,48.6,30.11,West,281,2.0,6.0,57,0.00,,,0.00,meteohub,2013-03-24 19:57:00,
2013-03-24 13:02:00,63.3,47.3,30.11,West,281,2.0,7.0,56,0.00,,,0.00,meteohub,2013-03-24 20:02:00,
2013-03-24 13:12:00,63.1,46.2,30.11,West,281,1.0,7.0,54,0.00,,,0.00,meteohub,2013-03-24 20:12:00,
2013-03-24 13:17:00,63.1,45.7,30.11,North,0,1.0,6.0,53,0.00,,,0.00,meteohub,2013-03-24 20:17:00,
2013-03-24 13:27:00,64.0,46.6,30.10,West,281,1.0,6.0,53,0.00,,,0.00,meteohub,2013-03-24 20:27:00,
2013-03-24 13:37:00,64.8,46.2,30.10,North,355,1.0,5.0,51,0.00,,,0.00,meteohub,2013-03-24 20:37:00,
2013-03-24 13:42:00,64.8,45.1,30.10,West,281,3.0,5.0,49,0.00,,,0.00,meteohub,2013-03-24 20:42:00,
2013-03-24 13:47:00,64.9,45.3,30.10,West,281,1.0,5.0,49,0.00,,,0.00,meteohub,2013-03-24 20:47:00,
2013-03-24 13:52:00,65.1,45.0,30.09,West,281,3.0,4.0,48,0.00,,,0.00,meteohub,2013-03-24 20:52:00,
2013-03-24 14:02:00,64.9,46.4,30.09,West,281,4.0,5.0,51,0.00,,,0.00,meteohub,2013-03-24 21:02:00,
2013-03-24 14:07:00,65.1,47.1,30.09,West,281,1.0,5.0,52,0.00,,,0.00,meteohub,2013-03-24 21:07:00,
2013-03-24 14:12:00,65.5,46.9,30.08,West,281,1.0,5.0,51,0.00,,,0.00,meteohub,2013-03-24 21:12:00,
2013-03-24 14:17:00,65.7,47.1,30.08,West,281,1.0,5.0,51,0.00,,,0.00,meteohub,2013-03-24 21:17:00,
2013-03-24 14:22:00,65.8,46.2,30.08,West,281,0.0,5.0,49,0.00,,,0.00,meteohub,2013-03-24 21:22:00,
2013-03-24 14:32:00,65.1,46.6,30.07,West,281,4.0,7.0,51,0.00,,,0.00,meteohub,2013-03-24 21:32:00,
2013-03-24 14:37:00,64.2,46.2,30.07,West,281,1.0,7.0,52,0.00,,,0.00,meteohub,2013-03-24 21:37:00,
2013-03-24 14:42:00,63.9,45.9,30.07,West,281,7.0,8.0,52,0.00,,,0.00,meteohub,2013-03-24 21:42:00,
2013-03-24 14:47:00,63.1,46.2,30.07,ENE,65,4.0,9.0,54,0.00,,,0.00,meteohub,2013-03-24 21:47:00,
2013-03-24 14:52:00,62.8,47.3,30.07,West,281,4.0,9.0,57,0.00,,,0.00,meteohub,2013-03-24 21:52:00,
2013-03-24 15:02:00,61.2,46.8,30.07,West,281,10.0,11.0,59,0.00,,,0.00,meteohub,2013-03-24 22:02:00,
2013-03-24 15:07:00,60.4,47.8,30.07,West,280,8.0,11.0,63,0.00,,,0.00,meteohub,2013-03-24 22:07:00,
2013-03-24 15:12:00,60.1,47.5,30.07,ENE,63,3.0,11.0,63,0.00,,,0.00,meteohub,2013-03-24 22:12:00,
2013-03-24 15:22:00,59.5,47.3,30.06,West,281,6.0,12.0,64,0.00,,,0.00,meteohub,2013-03-24 22:22:00,
2013-03-24 15:27:00,59.4,47.7,30.06,ENE,62,3.0,12.0,65,0.00,,,0.00,meteohub,2013-03-24 22:27:00,
2013-03-24 15:32:00,59.5,47.3,30.06,West,281,7.0,12.0,64,0.00,,,0.00,meteohub,2013-03-24 22:32:00,
2013-03-24 15:37:00,59.2,47.5,30.06,West,281,5.0,11.0,65,0.00,,,0.00,meteohub,2013-03-24 22:37:00,
2013-03-24 15:42:00,59.4,47.7,30.06,West,281,7.0,11.0,65,0.00,,,0.00,meteohub,2013-03-24 22:42:00,
2013-03-24 15:47:00,59.7,48.0,30.06,West,281,5.0,10.0,65,0.00,,,0.00,meteohub,2013-03-24 22:47:00,
2013-03-24 15:52:00,59.9,47.7,30.06,WNW,286,2.0,9.0,64,0.00,,,0.00,meteohub,2013-03-24 22:52:00,
2013-03-24 15:57:00,60.1,47.8,30.05,West,281,2.0,9.0,64,0.00,,,0.00,meteohub,2013-03-24 22:57:00,
2013-03-24 16:07:00,60.1,47.5,30.05,West,281,4.0,8.0,63,0.00,,,0.00,meteohub,2013-03-24 23:07:00,
2013-03-24 16:12:00,60.1,47.8,30.05,West,281,3.0,8.0,64,0.00,,,0.00,meteohub,2013-03-24 23:12:00,
2013-03-24 16:17:00,60.3,48.0,30.04,NW,320,3.0,7.0,64,0.00,,,0.00,meteohub,2013-03-24 23:17:00,
2013-03-24 16:22:00,60.3,47.7,30.04,West,281,5.0,8.0,63,0.00,,,0.00,meteohub,2013-03-24 23:22:00,
2013-03-24 16:27:00,60.1,47.5,30.04,West,281,3.0,8.0,63,0.00,,,0.00,meteohub,2013-03-24 23:27:00,
2013-03-24 16:32:00,59.5,47.8,30.04,West,281,2.0,8.0,65,0.00,,,0.00,meteohub,2013-03-24 23:32:00,
2013-03-24 16:37:00,59.5,47.8,30.04,ENE,67,3.0,9.0,65,0.00,,,0.00,meteohub,2013-03-24 23:37:00,
2013-03-24 16:42:00,59.0,47.7,30.04,West,281,4.0,10.0,66,0.00,,,0.00,meteohub,2013-03-24 23:42:00,
2013-03-24 16:47:00,59.0,47.7,30.04,West,281,2.0,10.0,66,0.00,,,0.00,meteohub,2013-03-24 23:47:00,
2013-03-24 16:52:00,58.6,47.3,30.04,West,281,5.0,10.0,66,0.00,,,0.00,meteohub,2013-03-24 23:52:00,
2013-03-24 16:57:00,58.1,47.1,30.04,West,281,1.0,11.0,67,0.00,,,0.00,meteohub,2013-03-24 23:57:00,
2013-03-24 17:02:00,57.7,46.9,30.04,West,281,5.0,11.0,67,0.00,,,0.00,meteohub,2013-03-25 00:02:00,
2013-03-24 17:07:00,57.4,46.9,30.04,West,281,5.0,12.0,68,0.00,,,0.00,meteohub,2013-03-25 00:07:00,
2013-03-24 17:12:00,57.4,46.9,30.03,West,281,8.0,12.0,68,0.00,,,0.00,meteohub,2013-03-25 00:12:00,
2013-03-24 17:22:00,57.4,46.6,30.04,West,281,5.0,12.0,67,0.00,,,0.00,meteohub,2013-03-25 00:22:00,
2013-03-24 17:27:00,57.4,46.6,30.03,WNW,283,6.0,12.0,67,0.00,,,0.00,meteohub,2013-03-25 00:27:00,
2013-03-24 17:32:00,57.0,46.6,30.03,West,281,3.0,14.0,68,0.00,,,0.00,meteohub,2013-03-25 00:32:00,
2013-03-24 17:37:00,56.8,46.8,30.03,NW,304,4.0,14.0,69,0.00,,,0.00,meteohub,2013-03-25 00:37:00,
2013-03-24 17:42:00,56.5,46.8,30.03,WNW,300,5.0,12.0,70,0.00,,,0.00,meteohub,2013-03-25 00:42:00,
2013-03-24 17:47:00,56.1,47.3,30.03,West,281,8.0,12.0,72,0.00,,,0.00,meteohub,2013-03-25 00:47:00,
2013-03-24 17:57:00,55.2,47.1,30.03,WNW,283,3.0,11.0,74,0.00,,,0.00,meteohub,2013-03-25 00:57:00,
2013-03-24 18:02:00,54.9,47.1,30.03,West,281,5.0,11.0,75,0.00,,,0.00,meteohub,2013-03-25 01:02:00,
2013-03-24 18:12:00,54.3,46.9,30.03,NW,319,5.0,11.0,76,0.00,,,0.00,meteohub,2013-03-25 01:12:00,
2013-03-24 18:17:00,54.1,47.1,30.03,West,281,1.0,12.0,77,0.00,,,0.00,meteohub,2013-03-25 01:17:00,
2013-03-24 18:27:00,54.3,46.9,30.03,West,280,5.0,12.0,76,0.00,,,0.00,meteohub,2013-03-25 01:27:00,
2013-03-24 18:32:00,54.0,46.9,30.03,West,280,6.0,9.0,77,0.00,,,0.00,meteohub,2013-03-25 01:32:00,
2013-03-24 18:37:00,54.0,46.9,30.03,West,281,5.0,10.0,77,0.00,,,0.00,meteohub,2013-03-25 01:37:00,
2013-03-24 18:42:00,53.4,46.4,30.03,West,281,2.0,10.0,77,0.00,,,0.00,meteohub,2013-03-25 01:42:00,
2013-03-24 18:47:00,53.4,46.8,30.03,West,281,5.0,10.0,78,0.00,,,0.00,meteohub,2013-03-25 01:47:00,
2013-03-24 18:52:00,53.2,46.6,30.03,NNE,13,1.0,10.0,78,0.00,,,0.00,meteohub,2013-03-25 01:52:00,
2013-03-24 18:57:00,53.2,46.6,30.02,West,281,3.0,8.0,78,0.00,,,0.00,meteohub,2013-03-25 01:57:00,
2013-03-24 19:02:00,53.2,46.9,30.02,West,281,2.0,8.0,79,0.00,,,0.00,meteohub,2013-03-25 02:02:00,
2013-03-24 19:07:00,53.1,46.8,30.02,WNW,294,3.0,11.0,79,0.00,,,0.00,meteohub,2013-03-25 02:07:00,
2013-03-24 19:12:00,52.7,46.8,30.02,West,280,2.0,11.0,80,0.00,,,0.00,meteohub,2013-03-25 02:12:00,
2013-03-24 19:17:00,52.5,46.6,30.03,West,280,4.0,11.0,80,0.00,,,0.00,meteohub,2013-03-25 02:17:00,
2013-03-24 19:22:00,52.2,46.6,30.03,West,280,8.0,10.0,81,0.00,,,0.00,meteohub,2013-03-25 02:22:00,
2013-03-24 19:32:00,51.8,46.4,30.03,West,280,4.0,12.0,82,0.00,,,0.00,meteohub,2013-03-25 02:32:00,
2013-03-24 19:37:00,52.0,46.6,30.03,NW,316,1.0,12.0,82,0.00,,,0.00,meteohub,2013-03-25 02:37:00,
2013-03-24 19:42:00,51.8,46.4,30.04,West,280,1.0,12.0,82,0.00,,,0.00,meteohub,2013-03-25 02:42:00,
2013-03-24 19:47:00,51.6,46.6,30.03,West,280,4.0,9.0,83,0.00,,,0.00,meteohub,2013-03-25 02:47:00,
2013-03-24 19:57:00,51.6,46.6,30.03,West,280,0.0,9.0,83,0.00,,,0.00,meteohub,2013-03-25 02:57:00,
2013-03-24 20:02:00,51.6,46.6,30.03,West,281,4.0,8.0,83,0.00,,,0.00,meteohub,2013-03-25 03:02:00,
2013-03-24 20:07:00,51.4,46.4,30.03,West,280,6.0,7.0,83,0.00,,,0.00,meteohub,2013-03-25 03:07:00,
2013-03-24 20:12:00,51.4,46.8,30.03,West,280,7.0,8.0,84,0.00,,,0.00,meteohub,2013-03-25 03:12:00,
2013-03-24 20:17:00,51.4,46.4,30.03,West,280,0.0,11.0,83,0.00,,,0.00,meteohub,2013-03-25 03:17:00,
2013-03-24 20:22:00,51.4,46.8,30.04,NW,325,7.0,11.0,84,0.00,,,0.00,meteohub,2013-03-25 03:22:00,
2013-03-24 20:32:00,51.3,46.6,30.03,West,280,4.0,10.0,84,0.00,,,0.00,meteohub,2013-03-25 03:32:00,
2013-03-24 20:42:00,51.1,46.4,30.04,West,280,7.0,10.0,84,0.00,,,0.00,meteohub,2013-03-25 03:42:00,
2013-03-24 20:47:00,51.1,46.4,30.03,West,280,3.0,10.0,84,0.00,,,0.00,meteohub,2013-03-25 03:47:00,
2013-03-24 20:52:00,50.9,46.2,30.04,West,280,4.0,10.0,84,0.00,,,0.00,meteohub,2013-03-25 03:52:00,
2013-03-24 20:57:00,50.7,46.4,30.04,West,280,5.0,8.0,85,0.00,,,0.00,meteohub,2013-03-25 03:57:00,
2013-03-24 21:02:00,50.7,46.4,30.04,West,280,3.0,8.0,85,0.00,,,0.00,meteohub,2013-03-25 04:02:00,
2013-03-24 21:07:00,50.7,46.4,30.04,ENE,60,5.0,8.0,85,0.00,,,0.00,meteohub,2013-03-25 04:07:00,
2013-03-24 21:12:00,50.7,46.4,30.04,West,280,4.0,8.0,85,0.00,,,0.00,meteohub,2013-03-25 04:12:00,
2013-03-24 21:17:00,50.5,46.2,30.04,West,280,0.0,8.0,85,0.00,,,0.00,meteohub,2013-03-25 04:17:00,
2013-03-24 21:22:00,50.5,46.2,30.04,West,280,5.0,8.0,85,0.00,,,0.00,meteohub,2013-03-25 04:22:00,
2013-03-24 21:27:00,50.5,46.2,30.05,WNW,283,2.0,8.0,85,0.00,,,0.00,meteohub,2013-03-25 04:27:00,
2013-03-24 21:32:00,50.5,46.2,30.05,ENE,68,3.0,7.0,85,0.00,,,0.00,meteohub,2013-03-25 04:32:00,
2013-03-24 21:37:00,50.5,46.2,30.05,West,280,6.0,10.0,85,0.00,,,0.00,meteohub,2013-03-25 04:37:00,
2013-03-24 21:42:00,50.5,46.2,30.05,WNW,293,3.0,10.0,85,0.00,,,0.00,meteohub,2013-03-25 04:42:00,
2013-03-24 21:52:00,50.4,46.0,30.05,West,280,2.0,9.0,85,0.00,,,0.00,meteohub,2013-03-25 04:52:00,
2013-03-24 21:57:00,50.4,46.4,30.05,West,280,2.0,7.0,86,0.00,,,0.00,meteohub,2013-03-25 04:57:00,
2013-03-24 22:02:00,50.4,46.4,30.05,West,280,0.0,7.0,86,0.00,,,0.00,meteohub,2013-03-25 05:02:00,
2013-03-24 22:07:00,50.5,46.6,30.06,West,280,1.0,6.0,86,0.00,,,0.00,meteohub,2013-03-25 05:07:00,
2013-03-24 22:12:00,50.4,46.0,30.05,West,280,3.0,6.0,85,0.00,,,0.00,meteohub,2013-03-25 05:12:00,
2013-03-24 22:22:00,50.4,46.0,30.06,West,280,3.0,8.0,85,0.00,,,0.00,meteohub,2013-03-25 05:22:00,
2013-03-24 22:27:00,50.4,46.4,30.06,West,280,3.0,16.0,86,0.00,,,0.00,meteohub,2013-03-25 05:27:00,
2013-03-24 22:37:00,50.4,46.0,30.06,West,280,1.0,8.0,85,0.00,,,0.00,meteohub,2013-03-25 05:37:00,
2013-03-24 22:47:00,50.4,46.4,30.06,West,280,2.0,8.0,86,0.00,,,0.00,meteohub,2013-03-25 05:47:00,
2013-03-24 22:52:00,50.4,46.4,30.06,West,280,6.0,8.0,86,0.00,,,0.00,meteohub,2013-03-25 05:52:00,
2013-03-24 22:57:00,50.4,46.0,30.06,West,280,4.0,8.0,85,0.00,,,0.00,meteohub,2013-03-25 05:57:00,
2013-03-24 23:02:00,50.4,46.0,30.06,West,280,3.0,7.0,85,0.00,,,0.00,meteohub,2013-03-25 06:02:00,
2013-03-24 23:07:00,50.2,45.9,30.06,West,280,4.0,9.0,85,0.00,,,0.00,meteohub,2013-03-25 06:07:00,
2013-03-24 23:12:00,50.4,46.0,30.06,West,280,0.0,9.0,85,0.00,,,0.00,meteohub,2013-03-25 06:12:00,
2013-03-24 23:17:00,50.4,46.0,30.06,West,280,5.0,9.0,85,0.00,,,0.00,meteohub,2013-03-25 06:17:00,
2013-03-24 23:22:00,50.4,46.0,30.06,West,280,2.0,6.0,85,0.00,,,0.00,meteohub,2013-03-25 06:22:00,
2013-03-24 23:27:00,50.4,46.0,30.06,West,281,0.0,9.0,85,0.00,,,0.00,meteohub,2013-03-25 06:27:00,
2013-03-24 23:32:00,50.4,46.0,30.06,West,280,5.0,9.0,85,0.00,,,0.00,meteohub,2013-03-25 06:32:00,
2013-03-24 23:37:00,50.2,45.9,30.06,West,280,4.0,9.0,85,0.00,,,0.00,meteohub,2013-03-25 06:37:00,
2013-03-24 23:42:00,50.2,46.2,30.06,West,280,0.0,8.0,86,0.00,,,0.00,meteohub,2013-03-25 06:42:00,
2013-03-24 23:52:00,50.4,46.0,30.06,WNW,283,4.0,7.0,85,0.00,,,0.00,meteohub,2013-03-25 06:52:00,
2013-03-24 23:57:00,50.4,46.0,30.06,West,280,5.0,6.0,85,0.00,,,0.00,meteohub,2013-03-25 06:57:00,